To NAV CANADA Home Page Login to a new session Search on AWWS site Disclaimer Vers la page française équivalente Tips FAQ What's new on the site To the Forecasts and Observations / NOTAM section To "File a Flight Plan" website Publications and other links Update of the User's profile FIC Telephone Numbers My Weather Data Folder Route Weather Data Regional Weather Data Local Weather Data To the Forecasts and Observations / NOTAM section
Request Generated 04/23/2018 at 17:17:42 UTC . Weather information available at that time is displayed.

METAR/TAF

If you find any discrepancies between the coded METAR/TAF and the plain language METAR/TAF please use the coded METAR/TAF. LWIS bulletins are not decoded in plain language.

TORONTO/LESTER B. PEARSON INTL/ON    

METAR CYYZ 231700Z 14008KT 110V170 15SM FEW250 15/M04 A3034 RMK CI1 CONTRAILS SLP278=
METAR
LOCATION
CYYZ - TORONTO/LESTER B. PEARSON INTL/ON
DATE - TIME
23 APRIL 2018 - 1700 UTC
WIND
140 TRUE @ 8  KNOTS
VARIATION
110 <-> 170  DEG
VISIBILITY
15 STAT.  MILES
RUNWAY VISUAL RANGE
WEATHER
CLOUDINESS
FEW CLOUDS (1/8 - 2/8) 25000  FT
TEMP / DEWPOINT
15 C / -4 C
ALTIMETER
30.34 IN HG
RECENT WEATHER
WIND SHEAR

METAR CYYZ 231600Z 15008KT 15SM FEW250 15/M05 A3036 RMK CI1 SLP285=
METAR
LOCATION
CYYZ - TORONTO/LESTER B. PEARSON INTL/ON
DATE - TIME
23 APRIL 2018 - 1600 UTC
WIND
150 TRUE @ 8  KNOTS
VISIBILITY
15 STAT.  MILES
RUNWAY VISUAL RANGE
WEATHER
CLOUDINESS
FEW CLOUDS (1/8 - 2/8) 25000  FT
TEMP / DEWPOINT
15 C / -5 C
ALTIMETER
30.36 IN HG
RECENT WEATHER
WIND SHEAR

METAR CYYZ 231500Z 11008KT 090V170 15SM FEW250 14/M06 A3038 RMK CI1 SLP292=
METAR
LOCATION
CYYZ - TORONTO/LESTER B. PEARSON INTL/ON
DATE - TIME
23 APRIL 2018 - 1500 UTC
WIND
110 TRUE @ 8  KNOTS
VARIATION
90 <-> 170  DEG
VISIBILITY
15 STAT.  MILES
RUNWAY VISUAL RANGE
WEATHER
CLOUDINESS
FEW CLOUDS (1/8 - 2/8) 25000  FT
TEMP / DEWPOINT
14 C / -6 C
ALTIMETER
30.38 IN HG
RECENT WEATHER
WIND SHEAR

TAF CYYZ 231439Z 2315/2418 13008KT P6SM FEW250 FM231900 15012KT P6SM FEW040 BECMG 2322/2324 06006KT FM240400 VRB03KT P6SM FEW050 BKN280 FM241000 18007KT P6SM SCT040 BKN160 FM241400 20012KT P6SM OVC050 FM241700 18012KT P6SM OVC120 RMK NXT FCST BY 231800Z=
TAF
LOCATION

CYYZ - TORONTO/LESTER B. PEARSON INTL/ON
VALIDITY [UTC]
23 APR - 1439 to
24 APR - 1800
 
TIMES
[UTC]
WIND
[DEGREES TRUE]
VISIBILITY
[STAT. MILES]
WEATHER
CLOUDINESS
[FEET AGL]
 
23 APR - 1500 to
23 APR - 1900
130 @ 8 KNOTS
6+
NIL
25000 FEW
 
23 APR - 1900 to
24 APR - 0400
150 @ 12 KNOTS
6+
NIL
4000 FEW
BECOMING
23 APR - 2200 to
24 APR - 0000
60 @ 6 KNOTS
 
 
 
 
24 APR - 0400 to
24 APR - 1000
VARIABLE @ 3 KNOTS
6+
NIL
5000 FEW
28000 BROKEN
 
24 APR - 1000 to
24 APR - 1400
180 @ 7 KNOTS
6+
NIL
4000 SCATTERED
16000 BROKEN
 
24 APR - 1400 to
24 APR - 1700
200 @ 12 KNOTS
6+
NIL
5000 OVERCAST
 
24 APR - 1700 to
24 APR - 1800
180 @ 12 KNOTS
6+
NIL
12000 OVERCAST
REMARKS
THE NEXT FORECAST WILL BE ISSUED BY 1800 UTC ON DAY 23


Your time UTC time
Weather data provided by Environment Canada and NAV CANADA